createdAt,value
2018-05-21T00:04:01.040Z,2.50
2018-05-21T00:09:02.503Z,2.33
2018-05-21T00:14:03.992Z,2.50
2018-05-21T00:19:05.617Z,2.80
2018-05-21T00:24:07.120Z,2.27
2018-05-21T00:29:08.662Z,2.23
2018-05-21T00:34:10.156Z,2.43
2018-05-21T00:39:11.670Z,2.90
2018-05-21T00:44:13.201Z,2.67
2018-05-21T00:49:15.525Z,2.50
2018-05-21T00:54:16.969Z,2.40
2018-05-21T00:59:19.385Z,2.60
2018-05-21T01:04:20.997Z,2.20
2018-05-21T01:09:22.530Z,2.83
2018-05-21T01:14:24.039Z,3.00
2018-05-21T01:19:25.582Z,2.63
2018-05-21T01:24:27.105Z,3.23
2018-05-21T01:29:28.607Z,3.20
2018-05-21T01:34:30.117Z,2.50
2018-05-21T01:39:32.367Z,3.10
2018-05-21T01:44:33.881Z,2.60
2018-05-21T01:49:36.192Z,3.43
2018-05-21T01:54:37.745Z,3.90
2018-05-21T01:59:39.208Z,3.10
2018-05-21T02:04:41.481Z,3.03
2018-05-21T02:09:43.876Z,2.83
2018-05-21T02:14:46.135Z,3.30
2018-05-21T02:19:47.735Z,3.63
2018-05-21T02:24:49.329Z,3.83
2018-05-21T02:29:50.822Z,3.23
2018-05-21T02:34:52.324Z,3.70
2018-05-21T02:39:54.603Z,3.90
2018-05-21T02:44:56.866Z,3.60
2018-05-21T02:49:58.394Z,3.73
2018-05-21T02:55:00.111Z,3.43
2018-05-21T03:00:01.732Z,3.70
2018-05-21T03:05:03.239Z,4.00
2018-05-21T03:10:04.928Z,3.83
2018-05-21T03:15:06.492Z,3.97
2018-05-21T03:20:07.983Z,4.40
2018-05-21T03:25:10.175Z,4.20
2018-05-21T03:30:11.861Z,3.93
2018-05-21T03:35:13.357Z,4.37
2018-05-21T03:40:14.879Z,4.00
2018-05-21T03:45:16.387Z,4.50
2018-05-21T03:50:17.830Z,4.33
2018-05-21T03:55:19.341Z,4.90
2018-05-21T04:00:39.472Z,4.73
2018-05-21T04:05:41.701Z,4.73
2018-05-21T04:10:43.173Z,4.77
2018-05-21T04:15:44.659Z,5.13
2018-05-21T04:20:46.145Z,5.13
2018-05-21T04:25:47.662Z,5.10
2018-05-21T04:30:49.238Z,5.10
2018-05-21T04:35:50.718Z,5.60
2018-05-21T04:40:52.296Z,5.40
2018-05-21T04:45:55.307Z,4.70
2018-05-21T04:50:57.289Z,4.90
2018-05-21T04:55:59.799Z,5.70
2018-05-21T05:01:02.204Z,5.80
2018-05-21T05:06:03.826Z,5.60
2018-05-21T05:11:05.928Z,5.73
2018-05-21T05:16:07.789Z,5.73
2018-05-21T05:21:12.485Z,5.67
2018-05-21T05:26:14.395Z,5.80
2018-05-21T05:31:15.994Z,6.00
2018-05-21T05:36:18.062Z,5.93
2018-05-21T05:41:20.830Z,6.23
2018-05-21T05:51:59.108Z,5.60
2018-05-21T05:57:01.463Z,6.40
2018-05-21T06:02:04.092Z,6.80
2018-05-21T06:07:06.451Z,6.80
2018-05-21T06:12:08.825Z,6.87
2018-05-21T06:17:10.759Z,7.30
2018-05-21T06:27:47.675Z,7.23
2018-05-21T06:32:49.937Z,6.97
2018-05-21T06:37:52.072Z,6.50
2018-05-21T06:42:54.082Z,7.97
2018-05-21T06:47:56.132Z,6.27
2018-05-21T06:52:57.988Z,7.00
2018-05-21T06:58:00.197Z,6.60
2018-05-21T07:03:01.833Z,6.77
2018-05-21T07:08:03.884Z,6.90
2018-05-21T07:13:06.647Z,6.97
2018-05-21T07:18:08.787Z,5.90
2018-05-21T07:23:11.312Z,6.73
2018-05-21T07:28:13.696Z,6.73
2018-05-21T07:33:15.288Z,6.27
2018-05-21T07:38:17.603Z,7.37
2018-05-21T07:43:19.504Z,7.43
2018-05-21T07:48:21.182Z,7.00
2018-05-21T07:53:23.981Z,7.23
2018-05-21T07:58:26.864Z,7.83
2018-05-21T08:03:28.802Z,7.33
2018-05-21T08:08:31.360Z,7.70
2018-05-21T08:13:32.925Z,7.17
2018-05-21T08:18:35.612Z,7.70
2018-05-21T08:23:38.711Z,7.33
2018-05-21T08:28:41.628Z,6.93
2018-05-21T08:33:43.801Z,6.97
2018-05-21T08:44:30.655Z,7.17
2018-05-21T08:49:32.342Z,7.10
2018-05-21T08:54:33.929Z,7.33
2018-05-21T08:59:35.497Z,7.07
2018-05-21T09:04:37.078Z,6.87
2018-05-21T09:09:38.646Z,7.40
2018-05-21T09:14:40.234Z,7.00
2018-05-21T09:19:41.792Z,6.93
2018-05-21T09:24:44.087Z,7.63
2018-05-21T09:29:46.400Z,7.67
2018-05-21T09:34:48.005Z,6.87
2018-05-21T09:39:49.659Z,6.70
2018-05-21T09:44:58.348Z,7.80
2018-05-21T09:50:00.576Z,7.80
2018-05-21T09:55:02.192Z,7.90
2018-05-21T10:00:03.713Z,7.47
2018-05-21T10:05:05.225Z,7.00
2018-05-21T10:10:07.509Z,7.10
2018-05-21T10:15:09.041Z,7.23
2018-05-21T10:20:10.565Z,7.03
2018-05-21T10:25:12.843Z,5.93
2018-05-21T10:30:15.121Z,6.60
2018-05-21T10:35:17.407Z,7.30
2018-05-21T10:40:19.706Z,7.03
2018-05-21T10:45:22.002Z,7.47
2018-05-21T10:50:23.539Z,7.07
2018-05-21T10:55:25.900Z,6.73
2018-05-21T11:00:27.494Z,6.80
2018-05-21T11:05:29.011Z,7.40
2018-05-21T11:10:30.583Z,6.93
2018-05-21T11:15:32.217Z,7.10
2018-05-21T11:20:35.189Z,6.83
2018-05-21T11:25:36.758Z,6.87
2018-05-21T11:30:38.511Z,6.30
2018-05-21T11:35:40.133Z,7.50
2018-05-21T11:40:42.393Z,6.10
2018-05-21T11:45:44.047Z,6.87
2018-05-21T11:50:45.640Z,7.20
2018-05-21T11:55:47.270Z,8.10
2018-05-21T12:00:48.823Z,7.20
2018-05-21T12:05:50.380Z,6.30
2018-05-21T12:10:51.929Z,6.67
2018-05-21T12:15:54.239Z,6.23
2018-05-21T12:20:55.775Z,6.23
2018-05-21T12:25:57.412Z,6.40
2018-05-21T12:30:58.972Z,7.00
2018-05-21T12:36:00.515Z,6.63
2018-05-21T12:41:02.000Z,5.60
2018-05-21T12:46:03.542Z,6.30
2018-05-21T12:51:05.059Z,6.20
2018-05-21T12:56:06.700Z,6.30
2018-05-21T13:01:08.241Z,6.03
2018-05-21T13:06:09.805Z,7.20
2018-05-21T13:11:11.345Z,6.70
2018-05-21T13:16:12.888Z,6.80
2018-05-21T13:21:14.442Z,7.27
2018-05-21T13:26:15.968Z,6.50
2018-05-21T13:31:18.251Z,6.23
2018-05-21T13:36:20.495Z,6.43
2018-05-21T13:41:22.052Z,6.30
2018-05-21T13:46:23.564Z,7.00
2018-05-21T13:51:25.844Z,6.70
2018-05-21T13:56:27.388Z,5.60
2018-05-21T14:01:28.908Z,5.57
2018-05-21T14:06:30.415Z,5.97
2018-05-21T14:11:31.979Z,7.10
2018-05-21T14:16:33.593Z,6.57
2018-05-21T14:21:35.975Z,7.40
2018-05-21T14:26:37.589Z,6.20
2018-05-21T14:31:39.114Z,6.70
2018-05-21T14:36:41.368Z,7.33
2018-05-21T14:41:42.947Z,7.93
2018-05-21T14:46:44.505Z,5.40
2018-05-21T14:51:46.260Z,6.53
2018-05-21T14:56:47.839Z,6.57
2018-05-21T15:01:49.383Z,6.37
2018-05-21T15:06:51.142Z,6.60
2018-05-21T15:11:52.712Z,6.83
2018-05-21T15:16:54.625Z,7.30
2018-05-21T15:21:56.179Z,6.30
2018-05-21T15:26:57.734Z,7.30
2018-05-21T15:31:59.251Z,6.10
2018-05-21T15:37:00.771Z,6.53
2018-05-21T15:42:02.349Z,6.30
2018-05-21T15:47:03.919Z,7.03
2018-05-21T15:52:05.487Z,6.80
2018-05-21T15:57:07.076Z,6.00
2018-05-21T16:02:08.683Z,6.73
2018-05-21T16:07:10.986Z,8.07
2018-05-21T16:12:13.265Z,6.60
2018-05-21T16:17:15.526Z,7.20
2018-05-21T16:22:17.059Z,7.07
2018-05-21T16:27:18.618Z,6.03
2018-05-21T16:32:20.319Z,7.10
2018-05-21T16:37:21.889Z,6.57
2018-05-21T16:42:23.416Z,6.63
2018-05-21T16:47:25.005Z,6.30
2018-05-21T16:52:26.697Z,6.00
2018-05-21T16:57:28.376Z,6.73
2018-05-21T17:02:29.931Z,5.73
2018-05-21T17:07:31.506Z,5.53
2018-05-21T17:12:33.063Z,6.13
2018-05-21T17:17:34.603Z,6.67
2018-05-21T17:22:36.127Z,5.73
2018-05-21T17:27:37.654Z,6.27
2018-05-21T17:32:39.239Z,5.53
2018-05-21T17:37:40.806Z,7.33
2018-05-21T17:42:42.339Z,6.90
2018-05-21T17:47:43.921Z,7.93
2018-05-21T17:52:45.442Z,6.70
2018-05-21T17:57:47.007Z,7.43
2018-05-21T18:02:48.639Z,6.27
2018-05-21T18:07:50.239Z,7.47
2018-05-21T18:12:51.834Z,6.63
2018-05-21T18:17:54.162Z,6.17
2018-05-21T18:22:55.991Z,7.47
2018-05-21T18:27:58.332Z,6.07
2018-05-21T18:32:59.876Z,5.97
2018-05-21T18:38:02.350Z,6.20
2018-05-21T18:43:04.036Z,5.83
2018-05-21T18:48:05.605Z,6.90
2018-05-21T18:53:07.182Z,6.70
2018-05-21T18:58:08.741Z,6.37
2018-05-21T19:03:10.293Z,6.80
2018-05-21T19:08:11.826Z,8.00
2018-05-21T19:13:13.427Z,7.43
2018-05-21T19:18:15.705Z,6.77
2018-05-21T19:23:18.014Z,6.90
2018-05-21T19:28:19.550Z,7.53
2018-05-21T19:33:21.220Z,7.97
2018-05-21T19:38:22.756Z,7.60
2018-05-21T19:43:24.651Z,8.10
2018-05-21T19:48:26.305Z,7.80
2018-05-21T19:53:28.071Z,8.37
2018-05-21T19:58:29.694Z,8.87
2018-05-21T20:03:32.164Z,8.13
2018-05-21T20:08:33.731Z,7.83
2018-05-21T20:13:35.396Z,8.30
2018-05-21T20:18:37.611Z,8.17
2018-05-21T20:23:39.896Z,9.63
2018-05-21T20:28:42.173Z,8.73
2018-05-21T20:33:44.575Z,8.90
2018-05-21T20:38:46.377Z,8.53
2018-05-21T20:43:47.923Z,9.17
2018-05-21T20:48:49.504Z,8.97
2018-05-21T20:53:51.141Z,8.80
2018-05-21T20:58:53.448Z,8.93
2018-05-21T21:03:55.252Z,9.53
2018-05-21T21:08:56.977Z,9.13
2018-05-21T21:13:59.371Z,8.47
2018-05-21T21:19:01.630Z,8.17
2018-05-21T21:24:03.372Z,8.20
2018-05-21T21:29:05.099Z,7.70
2018-05-21T21:34:07.373Z,7.90
2018-05-21T21:39:09.684Z,7.60
2018-05-21T21:44:11.416Z,7.60
2018-05-21T21:49:12.924Z,7.53
2018-05-21T21:54:14.445Z,6.80
2018-05-21T21:59:16.056Z,6.70
2018-05-21T22:04:17.635Z,6.93
2018-05-21T22:09:19.261Z,7.15
2018-05-21T22:14:20.819Z,6.77
2018-05-21T22:19:22.350Z,7.70
2018-05-21T22:24:23.891Z,5.87
2018-05-21T22:29:26.187Z,6.90
2018-05-21T22:34:27.694Z,6.27
2018-05-21T22:39:29.282Z,6.30
2018-05-21T22:44:30.887Z,7.20
2018-05-21T22:49:33.163Z,6.93
2018-05-21T22:54:35.412Z,6.77
2018-05-21T22:59:37.007Z,6.37
2018-05-21T23:04:39.399Z,6.03
2018-05-21T23:09:41.819Z,7.20
2018-05-21T23:14:43.359Z,5.93
2018-05-21T23:19:45.600Z,5.13
2018-05-21T23:24:47.182Z,6.83
2018-05-21T23:29:48.705Z,6.07
2018-05-21T23:34:50.254Z,6.00
2018-05-21T23:39:52.544Z,6.27
2018-05-21T23:44:54.071Z,6.00
2018-05-21T23:49:55.640Z,5.73
2018-05-21T23:54:57.265Z,5.30
2018-05-21T23:59:59.055Z,6.00
